Terminal Aerodrome Forecast
Issued by NWS

Home | Current Version | Previous Version | Text Only | Print | Product List | Glossary On
Versions: 1 2 3 4 5 6 7 8 9 10 11 12 13 14 15
734
FTUS46 KSEW 291120
TAFBFI
TAF
KBFI 291120Z 2912/3012 12005KT P6SM SCT030 BKN060 BKN200
     FM291500 14006KT P6SM SCT060 SCT150 BKN200
     FM291900 15006KT P6SM SCT050 BKN120 OVC200
     FM300100 16010KT P6SM -RA BKN035 OVC060
     FM300600 17012G20KT P6SM -SHRA BKN035
     FM300800 19013G22KT P6SM VCSH BKN035=

USA.gov is the U.S. government's official web portal to all federal, state and local government web resources and services.